sensor_id;sensor_type;location;lat;lon;timestamp;P1;durP1;ratioP1;P2;durP2;ratioP2
62102;SDS011;48077;48.104;11.702;2022-09-03T00:01:27;7.20;;;2.67;;
62102;SDS011;48077;48.104;11.702;2022-09-03T00:04:00;3.60;;;2.25;;
62102;SDS011;48077;48.104;11.702;2022-09-03T00:06:42;3.10;;;2.13;;
62102;SDS011;48077;48.104;11.702;2022-09-03T00:09:27;4.22;;;2.30;;
62102;SDS011;48077;48.104;11.702;2022-09-03T00:14:46;6.13;;;2.55;;
62102;SDS011;48077;48.104;11.702;2022-09-03T00:17:14;3.60;;;2.22;;
62102;SDS011;48077;48.104;11.702;2022-09-03T00:19:45;3.78;;;2.10;;
62102;SDS011;48077;48.104;11.702;2022-09-03T00:22:17;4.88;;;2.38;;
62102;SDS011;48077;48.104;11.702;2022-09-03T00:27:10;6.60;;;2.72;;
62102;SDS011;48077;48.104;11.702;2022-09-03T00:29:48;3.95;;;2.33;;
62102;SDS011;48077;48.104;11.702;2022-09-03T00:32:21;6.00;;;2.87;;
62102;SDS011;48077;48.104;11.702;2022-09-03T00:34:50;4.95;;;2.55;;
62102;SDS011;48077;48.104;11.702;2022-09-03T00:37:19;3.60;;;2.50;;
62102;SDS011;48077;48.104;11.702;2022-09-03T00:39:43;4.18;;;2.53;;
62102;SDS011;48077;48.104;11.702;2022-09-03T00:45:02;4.43;;;2.50;;
62102;SDS011;48077;48.104;11.702;2022-09-03T00:47:48;8.40;;;2.80;;
62102;SDS011;48077;48.104;11.702;2022-09-03T00:50:40;2.90;;;2.10;;
62102;SDS011;48077;48.104;11.702;2022-09-03T01:06:51;2.78;;;2.20;;
62102;SDS011;48077;48.104;11.702;2022-09-03T01:12:34;4.60;;;2.60;;
62102;SDS011;48077;48.104;11.702;2022-09-03T01:15:29;4.68;;;2.42;;
62102;SDS011;48077;48.104;11.702;2022-09-03T01:18:13;3.38;;;2.33;;
62102;SDS011;48077;48.104;11.702;2022-09-03T01:23:35;4.05;;;2.17;;
62102;SDS011;48077;48.104;11.702;2022-09-03T01:37:23;4.25;;;2.33;;
62102;SDS011;48077;48.104;11.702;2022-09-03T01:42:57;6.05;;;2.80;;
62102;SDS011;48077;48.104;11.702;2022-09-03T01:45:51;3.15;;;2.20;;
62102;SDS011;48077;48.104;11.702;2022-09-03T01:48:23;4.30;;;2.92;;
62102;SDS011;48077;48.104;11.702;2022-09-03T01:53:47;2.75;;;2.25;;
62102;SDS011;48077;48.104;11.702;2022-09-03T01:56:30;3.72;;;2.40;;
62102;SDS011;48077;48.104;11.702;2022-09-03T01:59:45;4.32;;;2.58;;
62102;SDS011;48077;48.104;11.702;2022-09-03T02:02:06;2.85;;;2.00;;
62102;SDS011;48077;48.104;11.702;2022-09-03T02:04:42;2.95;;;2.10;;
62102;SDS011;48077;48.104;11.702;2022-09-03T02:07:38;4.90;;;2.50;;
62102;SDS011;48077;48.104;11.702;2022-09-03T02:10:05;2.22;;;1.85;;
62102;SDS011;48077;48.104;11.702;2022-09-03T02:12:31;4.22;;;2.22;;
62102;SDS011;48077;48.104;11.702;2022-09-03T02:14:56;3.42;;;2.20;;
62102;SDS011;48077;48.104;11.702;2022-09-03T02:17:20;2.72;;;2.10;;
62102;SDS011;48077;48.104;11.702;2022-09-03T02:19:43;4.18;;;2.50;;
62102;SDS011;48077;48.104;11.702;2022-09-03T02:22:07;3.22;;;2.28;;
62102;SDS011;48077;48.104;11.702;2022-09-03T02:24:31;2.78;;;1.90;;
62102;SDS011;48077;48.104;11.702;2022-09-03T02:26:54;4.53;;;2.30;;
62102;SDS011;48077;48.104;11.702;2022-09-03T02:29:18;3.30;;;2.10;;
62102;SDS011;48077;48.104;11.702;2022-09-03T02:31:42;3.40;;;1.83;;
62102;SDS011;48077;48.104;11.702;2022-09-03T02:34:06;3.28;;;2.15;;
62102;SDS011;48077;48.104;11.702;2022-09-03T02:36:31;6.32;;;3.10;;
62102;SDS011;48077;48.104;11.702;2022-09-03T02:38:57;4.15;;;2.97;;
62102;SDS011;48077;48.104;11.702;2022-09-03T02:41:20;5.65;;;2.90;;
62102;SDS011;48077;48.104;11.702;2022-09-03T02:43:49;4.38;;;2.78;;
62102;SDS011;48077;48.104;11.702;2022-09-03T02:46:20;5.03;;;2.70;;
62102;SDS011;48077;48.104;11.702;2022-09-03T02:48:46;5.35;;;2.80;;
62102;SDS011;48077;48.104;11.702;2022-09-03T02:51:09;5.90;;;2.55;;
62102;SDS011;48077;48.104;11.702;2022-09-03T02:53:32;4.07;;;2.20;;
62102;SDS011;48077;48.104;11.702;2022-09-03T02:55:57;3.25;;;2.20;;
62102;SDS011;48077;48.104;11.702;2022-09-03T02:58:21;5.53;;;2.13;;
62102;SDS011;48077;48.104;11.702;2022-09-03T03:00:45;4.93;;;2.45;;
62102;SDS011;48077;48.104;11.702;2022-09-03T03:03:11;4.80;;;2.40;;
62102;SDS011;48077;48.104;11.702;2022-09-03T03:08:20;2.97;;;2.22;;
62102;SDS011;48077;48.104;11.702;2022-09-03T03:10:46;3.90;;;2.42;;
62102;SDS011;48077;48.104;11.702;2022-09-03T03:13:11;4.55;;;2.50;;
62102;SDS011;48077;48.104;11.702;2022-09-03T03:15:35;4.07;;;2.13;;
62102;SDS011;48077;48.104;11.702;2022-09-03T03:17:58;5.38;;;2.70;;
62102;SDS011;48077;48.104;11.702;2022-09-03T03:20:22;4.72;;;2.35;;
62102;SDS011;48077;48.104;11.702;2022-09-03T03:22:46;3.88;;;2.33;;
62102;SDS011;48077;48.104;11.702;2022-09-03T03:25:09;4.38;;;2.33;;
62102;SDS011;48077;48.104;11.702;2022-09-03T03:27:32;3.60;;;2.10;;
62102;SDS011;48077;48.104;11.702;2022-09-03T03:29:56;3.50;;;2.05;;
62102;SDS011;48077;48.104;11.702;2022-09-03T03:32:20;3.55;;;2.22;;
62102;SDS011;48077;48.104;11.702;2022-09-03T03:34:43;2.42;;;1.80;;
62102;SDS011;48077;48.104;11.702;2022-09-03T03:37:06;5.20;;;2.47;;
62102;SDS011;48077;48.104;11.702;2022-09-03T03:39:30;4.47;;;2.15;;
62102;SDS011;48077;48.104;11.702;2022-09-03T03:41:53;4.15;;;2.25;;
62102;SDS011;48077;48.104;11.702;2022-09-03T03:44:18;3.67;;;2.03;;
62102;SDS011;48077;48.104;11.702;2022-09-03T03:46:42;5.57;;;2.53;;
62102;SDS011;48077;48.104;11.702;2022-09-03T03:49:06;3.33;;;1.90;;
62102;SDS011;48077;48.104;11.702;2022-09-03T03:51:30;3.92;;;2.53;;
62102;SDS011;48077;48.104;11.702;2022-09-03T03:53:55;4.03;;;2.40;;
62102;SDS011;48077;48.104;11.702;2022-09-03T03:56:19;5.10;;;2.38;;
62102;SDS011;48077;48.104;11.702;2022-09-03T03:58:42;2.97;;;2.20;;
62102;SDS011;48077;48.104;11.702;2022-09-03T04:01:07;3.90;;;2.58;;
62102;SDS011;48077;48.104;11.702;2022-09-03T04:03:30;3.63;;;2.17;;
62102;SDS011;48077;48.104;11.702;2022-09-03T04:05:56;2.85;;;1.75;;
62102;SDS011;48077;48.104;11.702;2022-09-03T04:08:21;4.18;;;2.28;;
62102;SDS011;48077;48.104;11.702;2022-09-03T04:10:45;2.83;;;1.98;;
62102;SDS011;48077;48.104;11.702;2022-09-03T04:13:09;4.55;;;2.28;;
62102;SDS011;48077;48.104;11.702;2022-09-03T04:15:33;7.57;;;2.47;;
62102;SDS011;48077;48.104;11.702;2022-09-03T04:17:56;2.00;;;1.70;;
62102;SDS011;48077;48.104;11.702;2022-09-03T04:20:20;3.35;;;2.08;;
62102;SDS011;48077;48.104;11.702;2022-09-03T04:22:43;3.67;;;2.33;;
62102;SDS011;48077;48.104;11.702;2022-09-03T04:25:06;3.45;;;2.35;;
62102;SDS011;48077;48.104;11.702;2022-09-03T04:27:30;2.85;;;2.00;;
62102;SDS011;48077;48.104;11.702;2022-09-03T04:29:53;4.20;;;2.40;;
62102;SDS011;48077;48.104;11.702;2022-09-03T04:32:17;4.35;;;2.15;;
62102;SDS011;48077;48.104;11.702;2022-09-03T04:34:59;3.58;;;2.08;;
62102;SDS011;48077;48.104;11.702;2022-09-03T04:37:22;3.47;;;2.47;;
62102;SDS011;48077;48.104;11.702;2022-09-03T04:39:45;3.78;;;2.10;;
62102;SDS011;48077;48.104;11.702;2022-09-03T04:42:09;3.17;;;2.20;;
62102;SDS011;48077;48.104;11.702;2022-09-03T04:44:32;2.75;;;1.92;;
62102;SDS011;48077;48.104;11.702;2022-09-03T04:46:59;2.83;;;1.85;;
62102;SDS011;48077;48.104;11.702;2022-09-03T04:49:22;3.03;;;2.10;;
62102;SDS011;48077;48.104;11.702;2022-09-03T04:51:46;3.88;;;2.10;;
62102;SDS011;48077;48.104;11.702;2022-09-03T04:54:10;2.80;;;2.10;;
62102;SDS011;48077;48.104;11.702;2022-09-03T04:56:33;4.90;;;2.70;;
62102;SDS011;48077;48.104;11.702;2022-09-03T04:58:58;3.75;;;2.17;;
62102;SDS011;48077;48.104;11.702;2022-09-03T05:01:24;2.97;;;2.17;;
62102;SDS011;48077;48.104;11.702;2022-09-03T05:03:49;3.50;;;2.20;;
62102;SDS011;48077;48.104;11.702;2022-09-03T05:06:15;3.83;;;2.50;;
62102;SDS011;48077;48.104;11.702;2022-09-03T05:08:39;3.35;;;2.40;;
62102;SDS011;48077;48.104;11.702;2022-09-03T05:11:03;3.28;;;2.08;;
62102;SDS011;48077;48.104;11.702;2022-09-03T05:13:27;3.28;;;1.85;;
62102;SDS011;48077;48.104;11.702;2022-09-03T05:15:50;4.65;;;2.03;;
62102;SDS011;48077;48.104;11.702;2022-09-03T05:18:13;4.90;;;2.38;;
62102;SDS011;48077;48.104;11.702;2022-09-03T05:20:37;3.60;;;2.22;;
62102;SDS011;48077;48.104;11.702;2022-09-03T05:23:01;2.72;;;2.00;;
62102;SDS011;48077;48.104;11.702;2022-09-03T05:25:26;4.35;;;2.13;;
62102;SDS011;48077;48.104;11.702;2022-09-03T05:27:49;3.00;;;1.95;;
62102;SDS011;48077;48.104;11.702;2022-09-03T05:30:13;4.03;;;2.50;;
62102;SDS011;48077;48.104;11.702;2022-09-03T05:32:37;3.17;;;2.08;;
62102;SDS011;48077;48.104;11.702;2022-09-03T05:35:00;3.10;;;1.92;;
62102;SDS011;48077;48.104;11.702;2022-09-03T05:37:24;5.25;;;2.58;;
62102;SDS011;48077;48.104;11.702;2022-09-03T05:39:47;8.15;;;2.88;;
62102;SDS011;48077;48.104;11.702;2022-09-03T05:42:11;7.57;;;3.00;;
62102;SDS011;48077;48.104;11.702;2022-09-03T05:44:36;7.00;;;3.30;;
62102;SDS011;48077;48.104;11.702;2022-09-03T05:47:00;4.30;;;3.13;;
62102;SDS011;48077;48.104;11.702;2022-09-03T05:49:23;5.20;;;2.92;;
62102;SDS011;48077;48.104;11.702;2022-09-03T05:51:47;3.90;;;2.70;;
62102;SDS011;48077;48.104;11.702;2022-09-03T05:54:10;8.48;;;3.22;;
62102;SDS011;48077;48.104;11.702;2022-09-03T05:56:34;3.40;;;2.60;;
62102;SDS011;48077;48.104;11.702;2022-09-03T05:58:59;5.68;;;2.83;;
62102;SDS011;48077;48.104;11.702;2022-09-03T06:01:28;3.95;;;2.63;;
62102;SDS011;48077;48.104;11.702;2022-09-03T06:03:56;3.53;;;2.33;;
62102;SDS011;48077;48.104;11.702;2022-09-03T06:06:25;3.83;;;2.50;;
62102;SDS011;48077;48.104;11.702;2022-09-03T06:09:11;4.53;;;2.42;;
62102;SDS011;48077;48.104;11.702;2022-09-03T06:11:35;4.05;;;2.47;;
62102;SDS011;48077;48.104;11.702;2022-09-03T06:14:01;3.53;;;2.17;;
62102;SDS011;48077;48.104;11.702;2022-09-03T06:16:28;4.50;;;2.47;;
62102;SDS011;48077;48.104;11.702;2022-09-03T06:18:51;3.35;;;2.45;;
62102;SDS011;48077;48.104;11.702;2022-09-03T06:21:15;3.42;;;2.55;;
62102;SDS011;48077;48.104;11.702;2022-09-03T06:23:39;4.43;;;2.50;;
62102;SDS011;48077;48.104;11.702;2022-09-03T06:26:07;5.70;;;3.00;;
62102;SDS011;48077;48.104;11.702;2022-09-03T06:28:32;4.15;;;2.60;;
62102;SDS011;48077;48.104;11.702;2022-09-03T06:30:57;3.63;;;2.25;;
62102;SDS011;48077;48.104;11.702;2022-09-03T06:33:21;3.83;;;2.53;;
62102;SDS011;48077;48.104;11.702;2022-09-03T06:35:46;3.95;;;2.95;;
62102;SDS011;48077;48.104;11.702;2022-09-03T06:38:10;5.65;;;2.70;;
62102;SDS011;48077;48.104;11.702;2022-09-03T06:40:34;4.28;;;2.38;;
62102;SDS011;48077;48.104;11.702;2022-09-03T06:42:58;5.45;;;3.30;;
62102;SDS011;48077;48.104;11.702;2022-09-03T06:45:22;3.35;;;2.45;;
62102;SDS011;48077;48.104;11.702;2022-09-03T06:47:46;4.10;;;2.80;;
62102;SDS011;48077;48.104;11.702;2022-09-03T06:50:09;3.55;;;2.60;;
62102;SDS011;48077;48.104;11.702;2022-09-03T06:52:32;5.38;;;2.90;;
62102;SDS011;48077;48.104;11.702;2022-09-03T06:54:56;3.55;;;2.35;;
62102;SDS011;48077;48.104;11.702;2022-09-03T06:57:20;4.65;;;2.72;;
62102;SDS011;48077;48.104;11.702;2022-09-03T06:59:43;3.30;;;2.55;;
62102;SDS011;48077;48.104;11.702;2022-09-03T07:02:06;3.42;;;2.53;;
62102;SDS011;48077;48.104;11.702;2022-09-03T07:04:30;6.43;;;2.80;;
62102;SDS011;48077;48.104;11.702;2022-09-03T07:06:56;4.63;;;2.67;;
62102;SDS011;48077;48.104;11.702;2022-09-03T07:09:19;3.78;;;2.40;;
62102;SDS011;48077;48.104;11.702;2022-09-03T07:11:43;3.80;;;2.55;;
62102;SDS011;48077;48.104;11.702;2022-09-03T07:14:09;3.17;;;2.30;;
62102;SDS011;48077;48.104;11.702;2022-09-03T07:16:34;5.65;;;2.80;;
62102;SDS011;48077;48.104;11.702;2022-09-03T07:18:58;3.67;;;2.50;;
62102;SDS011;48077;48.104;11.702;2022-09-03T07:21:26;4.15;;;2.60;;
62102;SDS011;48077;48.104;11.702;2022-09-03T07:23:52;3.83;;;2.42;;
62102;SDS011;48077;48.104;11.702;2022-09-03T07:26:17;4.70;;;2.70;;
62102;SDS011;48077;48.104;11.702;2022-09-03T07:28:42;3.40;;;2.17;;
62102;SDS011;48077;48.104;11.702;2022-09-03T07:31:18;4.13;;;2.40;;
62102;SDS011;48077;48.104;11.702;2022-09-03T07:33:45;2.92;;;2.38;;
62102;SDS011;48077;48.104;11.702;2022-09-03T07:36:10;4.28;;;2.60;;
62102;SDS011;48077;48.104;11.702;2022-09-03T07:38:36;3.28;;;2.30;;
62102;SDS011;48077;48.104;11.702;2022-09-03T07:41:00;5.22;;;2.55;;
62102;SDS011;48077;48.104;11.702;2022-09-03T07:43:26;3.42;;;2.47;;
62102;SDS011;48077;48.104;11.702;2022-09-03T07:45:55;3.50;;;2.50;;
62102;SDS011;48077;48.104;11.702;2022-09-03T07:48:20;4.35;;;2.72;;
62102;SDS011;48077;48.104;11.702;2022-09-03T07:50:43;5.03;;;3.05;;
62102;SDS011;48077;48.104;11.702;2022-09-03T07:53:06;5.03;;;2.53;;
62102;SDS011;48077;48.104;11.702;2022-09-03T07:55:30;4.53;;;2.88;;
62102;SDS011;48077;48.104;11.702;2022-09-03T07:57:56;5.85;;;3.00;;
62102;SDS011;48077;48.104;11.702;2022-09-03T08:00:23;4.43;;;2.97;;
62102;SDS011;48077;48.104;11.702;2022-09-03T08:02:47;3.80;;;2.60;;
62102;SDS011;48077;48.104;11.702;2022-09-03T08:05:10;3.97;;;2.80;;
62102;SDS011;48077;48.104;11.702;2022-09-03T08:07:34;3.75;;;2.50;;
62102;SDS011;48077;48.104;11.702;2022-09-03T08:09:57;3.47;;;2.40;;
62102;SDS011;48077;48.104;11.702;2022-09-03T08:12:21;2.33;;;2.08;;
62102;SDS011;48077;48.104;11.702;2022-09-03T08:14:44;3.03;;;2.38;;
62102;SDS011;48077;48.104;11.702;2022-09-03T08:17:08;3.65;;;2.60;;
62102;SDS011;48077;48.104;11.702;2022-09-03T08:19:32;2.85;;;2.40;;
62102;SDS011;48077;48.104;11.702;2022-09-03T08:21:56;4.35;;;2.67;;
62102;SDS011;48077;48.104;11.702;2022-09-03T08:24:19;3.65;;;2.72;;
62102;SDS011;48077;48.104;11.702;2022-09-03T08:26:44;3.05;;;2.42;;
62102;SDS011;48077;48.104;11.702;2022-09-03T08:29:07;4.70;;;3.30;;
62102;SDS011;48077;48.104;11.702;2022-09-03T08:31:31;3.85;;;2.78;;
62102;SDS011;48077;48.104;11.702;2022-09-03T08:33:56;3.63;;;2.83;;
62102;SDS011;48077;48.104;11.702;2022-09-03T08:36:22;4.53;;;3.03;;
62102;SDS011;48077;48.104;11.702;2022-09-03T08:38:47;3.42;;;2.30;;
62102;SDS011;48077;48.104;11.702;2022-09-03T08:41:19;4.85;;;3.03;;
62102;SDS011;48077;48.104;11.702;2022-09-03T08:46:09;8.27;;;3.20;;
62102;SDS011;48077;48.104;11.702;2022-09-03T08:48:33;3.92;;;3.00;;
62102;SDS011;48077;48.104;11.702;2022-09-03T08:50:56;4.15;;;2.65;;
62102;SDS011;48077;48.104;11.702;2022-09-03T08:53:30;3.47;;;3.17;;
62102;SDS011;48077;48.104;11.702;2022-09-03T08:55:59;4.38;;;2.75;;
62102;SDS011;48077;48.104;11.702;2022-09-03T08:58:26;6.23;;;2.80;;
62102;SDS011;48077;48.104;11.702;2022-09-03T09:09:45;4.70;;;3.47;;
62102;SDS011;48077;48.104;11.702;2022-09-03T09:14:44;5.22;;;3.38;;
62102;SDS011;48077;48.104;11.702;2022-09-03T09:20:30;6.40;;;4.22;;
62102;SDS011;48077;48.104;11.702;2022-09-03T09:22:47;6.18;;;4.38;;
62102;SDS011;48077;48.104;11.702;2022-09-03T09:25:21;4.50;;;3.67;;
62102;SDS011;48077;48.104;11.702;2022-09-03T09:30:18;4.35;;;3.40;;
62102;SDS011;48077;48.104;11.702;2022-09-03T09:32:41;4.20;;;3.42;;
62102;SDS011;48077;48.104;11.702;2022-09-03T09:35:07;4.95;;;3.35;;
62102;SDS011;48077;48.104;11.702;2022-09-03T09:37:34;4.22;;;3.15;;
62102;SDS011;48077;48.104;11.702;2022-09-03T09:39:58;4.75;;;3.35;;
62102;SDS011;48077;48.104;11.702;2022-09-03T09:42:22;4.68;;;3.28;;
62102;SDS011;48077;48.104;11.702;2022-09-03T09:44:46;3.42;;;2.90;;
62102;SDS011;48077;48.104;11.702;2022-09-03T09:47:15;4.88;;;3.22;;
62102;SDS011;48077;48.104;11.702;2022-09-03T09:52:12;5.78;;;3.55;;
62102;SDS011;48077;48.104;11.702;2022-09-03T09:54:38;4.07;;;3.28;;
62102;SDS011;48077;48.104;11.702;2022-09-03T09:57:03;4.30;;;2.90;;
62102;SDS011;48077;48.104;11.702;2022-09-03T09:59:29;4.00;;;2.90;;
62102;SDS011;48077;48.104;11.702;2022-09-03T10:02:01;4.53;;;3.08;;
62102;SDS011;48077;48.104;11.702;2022-09-03T10:04:29;3.80;;;2.80;;
62102;SDS011;48077;48.104;11.702;2022-09-03T10:09:41;3.42;;;2.53;;
62102;SDS011;48077;48.104;11.702;2022-09-03T10:14:49;4.40;;;3.08;;
62102;SDS011;48077;48.104;11.702;2022-09-03T10:20:10;4.25;;;2.70;;
62102;SDS011;48077;48.104;11.702;2022-09-03T10:22:51;3.35;;;2.60;;
62102;SDS011;48077;48.104;11.702;2022-09-03T10:25:17;4.57;;;2.85;;
62102;SDS011;48077;48.104;11.702;2022-09-03T10:27:43;4.30;;;2.70;;
62102;SDS011;48077;48.104;11.702;2022-09-03T10:30:07;3.25;;;2.42;;
62102;SDS011;48077;48.104;11.702;2022-09-03T10:32:52;4.10;;;2.42;;
62102;SDS011;48077;48.104;11.702;2022-09-03T10:35:30;4.72;;;2.40;;
62102;SDS011;48077;48.104;11.702;2022-09-03T10:46:18;5.25;;;3.10;;
62102;SDS011;48077;48.104;11.702;2022-09-03T10:54:35;4.45;;;2.80;;
62102;SDS011;48077;48.104;11.702;2022-09-03T11:00:11;4.10;;;2.80;;
62102;SDS011;48077;48.104;11.702;2022-09-03T11:02:52;4.45;;;2.40;;
62102;SDS011;48077;48.104;11.702;2022-09-03T11:05:30;3.70;;;2.53;;
62102;SDS011;48077;48.104;11.702;2022-09-03T11:08:01;3.42;;;2.45;;
62102;SDS011;48077;48.104;11.702;2022-09-03T11:10:38;4.53;;;2.72;;
62102;SDS011;48077;48.104;11.702;2022-09-03T11:20:50;4.57;;;2.65;;
62102;SDS011;48077;48.104;11.702;2022-09-03T11:23:17;3.42;;;2.58;;
62102;SDS011;48077;48.104;11.702;2022-09-03T11:25:42;4.18;;;2.67;;
62102;SDS011;48077;48.104;11.702;2022-09-03T11:33:37;3.42;;;2.40;;
62102;SDS011;48077;48.104;11.702;2022-09-03T11:36:06;3.20;;;2.35;;
62102;SDS011;48077;48.104;11.702;2022-09-03T11:38:29;4.00;;;2.83;;
62102;SDS011;48077;48.104;11.702;2022-09-03T11:43:36;4.95;;;2.90;;
62102;SDS011;48077;48.104;11.702;2022-09-03T11:48:41;3.63;;;2.80;;
62102;SDS011;48077;48.104;11.702;2022-09-03T11:56:28;3.47;;;2.35;;
62102;SDS011;48077;48.104;11.702;2022-09-03T11:58:58;3.45;;;2.20;;
62102;SDS011;48077;48.104;11.702;2022-09-03T12:01:24;2.60;;;2.20;;
62102;SDS011;48077;48.104;11.702;2022-09-03T12:03:51;4.07;;;2.45;;
62102;SDS011;48077;48.104;11.702;2022-09-03T12:09:19;3.15;;;2.60;;
62102;SDS011;48077;48.104;11.702;2022-09-03T12:12:06;3.40;;;2.40;;
62102;SDS011;48077;48.104;11.702;2022-09-03T12:14:48;3.72;;;2.63;;
62102;SDS011;48077;48.104;11.702;2022-09-03T12:22:37;2.80;;;2.22;;
62102;SDS011;48077;48.104;11.702;2022-09-03T12:25:08;2.83;;;2.42;;
62102;SDS011;48077;48.104;11.702;2022-09-03T12:27:34;4.28;;;2.72;;
62102;SDS011;48077;48.104;11.702;2022-09-03T12:29:57;4.25;;;2.70;;
62102;SDS011;48077;48.104;11.702;2022-09-03T12:32:22;2.97;;;2.22;;
62102;SDS011;48077;48.104;11.702;2022-09-03T12:34:46;3.35;;;2.72;;
62102;SDS011;48077;48.104;11.702;2022-09-03T12:37:17;3.08;;;2.50;;
62102;SDS011;48077;48.104;11.702;2022-09-03T12:39:49;4.90;;;2.80;;
62102;SDS011;48077;48.104;11.702;2022-09-03T12:42:19;2.95;;;2.35;;
62102;SDS011;48077;48.104;11.702;2022-09-03T12:44:47;2.85;;;2.20;;
62102;SDS011;48077;48.104;11.702;2022-09-03T12:47:14;3.30;;;2.53;;
62102;SDS011;48077;48.104;11.702;2022-09-03T12:49:46;2.55;;;2.13;;
62102;SDS011;48077;48.104;11.702;2022-09-03T12:52:15;2.70;;;2.38;;
62102;SDS011;48077;48.104;11.702;2022-09-03T13:00:24;2.10;;;1.90;;
62102;SDS011;48077;48.104;11.702;2022-09-03T13:03:07;2.75;;;2.42;;
62102;SDS011;48077;48.104;11.702;2022-09-03T13:05:44;3.60;;;2.72;;
62102;SDS011;48077;48.104;11.702;2022-09-03T13:08:18;3.03;;;2.63;;
62102;SDS011;48077;48.104;11.702;2022-09-03T13:10:44;3.70;;;2.50;;
62102;SDS011;48077;48.104;11.702;2022-09-03T13:29:04;2.88;;;2.58;;
62102;SDS011;48077;48.104;11.702;2022-09-03T13:34:06;2.70;;;2.20;;
62102;SDS011;48077;48.104;11.702;2022-09-03T13:39:26;2.42;;;2.00;;
62102;SDS011;48077;48.104;11.702;2022-09-03T13:42:02;2.40;;;1.90;;
62102;SDS011;48077;48.104;11.702;2022-09-03T13:44:36;3.45;;;2.15;;
62102;SDS011;48077;48.104;11.702;2022-09-03T13:47:50;4.28;;;2.22;;
62102;SDS011;48077;48.104;11.702;2022-09-03T13:50:25;2.90;;;2.22;;
62102;SDS011;48077;48.104;11.702;2022-09-03T13:55:36;3.72;;;2.30;;
62102;SDS011;48077;48.104;11.702;2022-09-03T13:58:08;3.45;;;2.15;;
62102;SDS011;48077;48.104;11.702;2022-09-03T14:08:33;3.63;;;2.45;;
62102;SDS011;48077;48.104;11.702;2022-09-03T14:13:45;3.13;;;2.33;;
62102;SDS011;48077;48.104;11.702;2022-09-03T14:19:21;3.30;;;2.50;;
62102;SDS011;48077;48.104;11.702;2022-09-03T14:21:57;2.47;;;2.15;;
62102;SDS011;48077;48.104;11.702;2022-09-03T14:24:25;3.08;;;2.30;;
62102;SDS011;48077;48.104;11.702;2022-09-03T14:27:09;3.38;;;2.42;;
62102;SDS011;48077;48.104;11.702;2022-09-03T14:29:33;2.67;;;2.00;;
62102;SDS011;48077;48.104;11.702;2022-09-03T14:32:11;3.92;;;2.03;;
62102;SDS011;48077;48.104;11.702;2022-09-03T14:34:50;3.90;;;2.45;;
62102;SDS011;48077;48.104;11.702;2022-09-03T14:39:51;3.10;;;2.42;;
62102;SDS011;48077;48.104;11.702;2022-09-03T14:47:37;3.80;;;1.45;;
62102;SDS011;48077;48.104;11.702;2022-09-03T14:55:47;4.55;;;1.77;;
62102;SDS011;48077;48.104;11.702;2022-09-03T14:58:23;8.75;;;2.08;;
62102;SDS011;48077;48.104;11.702;2022-09-03T15:01:25;6.32;;;1.98;;
62102;SDS011;48077;48.104;11.702;2022-09-03T15:04:42;3.35;;;2.00;;
62102;SDS011;48077;48.104;11.702;2022-09-03T15:12:39;4.88;;;1.98;;
62102;SDS011;48077;48.104;11.702;2022-09-03T15:18:10;4.45;;;1.70;;
62102;SDS011;48077;48.104;11.702;2022-09-03T15:23:19;5.68;;;1.92;;
62102;SDS011;48077;48.104;11.702;2022-09-03T15:37:07;5.50;;;2.08;;
62102;SDS011;48077;48.104;11.702;2022-09-03T15:39:35;4.97;;;1.77;;
62102;SDS011;48077;48.104;11.702;2022-09-03T15:42:16;4.13;;;1.63;;
62102;SDS011;48077;48.104;11.702;2022-09-03T15:44:48;5.60;;;2.35;;
62102;SDS011;48077;48.104;11.702;2022-09-03T15:47:35;4.05;;;2.13;;
62102;SDS011;48077;48.104;11.702;2022-09-03T15:50:14;3.13;;;1.60;;
62102;SDS011;48077;48.104;11.702;2022-09-03T16:00:57;3.00;;;1.80;;
62102;SDS011;48077;48.104;11.702;2022-09-03T16:06:17;3.45;;;1.75;;
62102;SDS011;48077;48.104;11.702;2022-09-03T16:08:54;2.92;;;1.60;;
62102;SDS011;48077;48.104;11.702;2022-09-03T16:14:40;4.18;;;1.67;;
62102;SDS011;48077;48.104;11.702;2022-09-03T16:17:15;4.45;;;2.10;;
62102;SDS011;48077;48.104;11.702;2022-09-03T16:20:07;3.08;;;1.88;;
62102;SDS011;48077;48.104;11.702;2022-09-03T16:23:03;4.85;;;2.10;;
62102;SDS011;48077;48.104;11.702;2022-09-03T16:26:00;5.13;;;2.10;;
62102;SDS011;48077;48.104;11.702;2022-09-03T16:28:45;5.30;;;1.83;;
62102;SDS011;48077;48.104;11.702;2022-09-03T16:33:57;4.68;;;1.92;;
62102;SDS011;48077;48.104;11.702;2022-09-03T16:36:36;4.50;;;1.60;;
62102;SDS011;48077;48.104;11.702;2022-09-03T16:39:15;4.93;;;1.83;;
62102;SDS011;48077;48.104;11.702;2022-09-03T16:50:14;5.15;;;2.20;;
62102;SDS011;48077;48.104;11.702;2022-09-03T16:52:46;3.20;;;1.60;;
62102;SDS011;48077;48.104;11.702;2022-09-03T17:01:32;2.45;;;1.90;;
62102;SDS011;48077;48.104;11.702;2022-09-03T17:04:28;4.07;;;2.35;;
62102;SDS011;48077;48.104;11.702;2022-09-03T17:07:18;4.57;;;2.13;;
62102;SDS011;48077;48.104;11.702;2022-09-03T17:18:35;6.05;;;2.28;;
62102;SDS011;48077;48.104;11.702;2022-09-03T17:35:02;2.88;;;1.73;;
62102;SDS011;48077;48.104;11.702;2022-09-03T17:40:27;5.50;;;2.15;;
62102;SDS011;48077;48.104;11.702;2022-09-03T17:43:06;4.45;;;1.70;;
62102;SDS011;48077;48.104;11.702;2022-09-03T17:45:58;3.72;;;1.40;;
62102;SDS011;48077;48.104;11.702;2022-09-03T17:53:55;4.10;;;1.80;;
62102;SDS011;48077;48.104;11.702;2022-09-03T17:59:00;3.80;;;1.60;;
62102;SDS011;48077;48.104;11.702;2022-09-03T18:01:28;3.65;;;1.80;;
62102;SDS011;48077;48.104;11.702;2022-09-03T18:03:58;3.53;;;1.77;;
62102;SDS011;48077;48.104;11.702;2022-09-03T18:06:41;4.15;;;1.52;;
62102;SDS011;48077;48.104;11.702;2022-09-03T18:11:40;4.00;;;1.80;;
62102;SDS011;48077;48.104;11.702;2022-09-03T18:17:05;2.70;;;1.40;;
62102;SDS011;48077;48.104;11.702;2022-09-03T18:19:45;3.35;;;1.90;;
62102;SDS011;48077;48.104;11.702;2022-09-03T18:22:35;3.75;;;1.60;;
62102;SDS011;48077;48.104;11.702;2022-09-03T18:25:27;1.67;;;1.25;;
62102;SDS011;48077;48.104;11.702;2022-09-03T18:28:14;3.35;;;1.30;;
62102;SDS011;48077;48.104;11.702;2022-09-03T18:31:00;3.58;;;1.50;;
62102;SDS011;48077;48.104;11.702;2022-09-03T18:33:42;3.72;;;1.65;;
62102;SDS011;48077;48.104;11.702;2022-09-03T18:36:23;2.22;;;1.40;;
62102;SDS011;48077;48.104;11.702;2022-09-03T18:39:20;4.05;;;1.50;;
62102;SDS011;48077;48.104;11.702;2022-09-03T18:45:14;3.80;;;1.83;;
62102;SDS011;48077;48.104;11.702;2022-09-03T18:52:02;3.50;;;1.40;;
62102;SDS011;48077;48.104;11.702;2022-09-03T18:55:02;3.33;;;1.42;;
62102;SDS011;48077;48.104;11.702;2022-09-03T18:58:06;4.95;;;1.95;;
62102;SDS011;48077;48.104;11.702;2022-09-03T19:01:07;3.85;;;1.55;;
62102;SDS011;48077;48.104;11.702;2022-09-03T19:04:06;4.32;;;1.73;;
62102;SDS011;48077;48.104;11.702;2022-09-03T19:07:44;3.78;;;1.77;;
62102;SDS011;48077;48.104;11.702;2022-09-03T19:10:53;5.00;;;1.90;;
62102;SDS011;48077;48.104;11.702;2022-09-03T19:13:42;7.38;;;2.53;;
62102;SDS011;48077;48.104;11.702;2022-09-03T19:16:37;3.47;;;1.80;;
62102;SDS011;48077;48.104;11.702;2022-09-03T19:19:55;5.63;;;1.92;;
62102;SDS011;48077;48.104;11.702;2022-09-03T19:22:45;6.32;;;1.85;;
62102;SDS011;48077;48.104;11.702;2022-09-03T19:25:28;3.33;;;1.90;;
62102;SDS011;48077;48.104;11.702;2022-09-03T19:28:18;4.57;;;2.00;;
62102;SDS011;48077;48.104;11.702;2022-09-03T19:43:24;3.95;;;1.90;;
62102;SDS011;48077;48.104;11.702;2022-09-03T19:46:38;3.47;;;1.60;;
62102;SDS011;48077;48.104;11.702;2022-09-03T19:49:41;4.10;;;1.88;;
62102;SDS011;48077;48.104;11.702;2022-09-03T19:55:25;2.90;;;1.50;;